sensor_id;sensor_type;location;lat;lon;timestamp;P1;durP1;ratioP1;P2;durP2;ratioP2
68214;SDS011;55036;52.138;5.236;2023-04-06T00:00:48;17.85;;;10.45;;
68214;SDS011;55036;52.138;5.236;2023-04-06T00:03:15;20.10;;;9.20;;
68214;SDS011;55036;52.138;5.236;2023-04-06T00:05:42;19.40;;;10.30;;
68214;SDS011;55036;52.138;5.236;2023-04-06T00:08:09;17.50;;;10.23;;
68214;SDS011;55036;52.138;5.236;2023-04-06T00:10:36;14.85;;;9.13;;
68214;SDS011;55036;52.138;5.236;2023-04-06T00:13:02;16.77;;;10.10;;
68214;SDS011;55036;52.138;5.236;2023-04-06T00:15:29;20.23;;;10.82;;
68214;SDS011;55036;52.138;5.236;2023-04-06T00:17:56;19.38;;;10.60;;
68214;SDS011;55036;52.138;5.236;2023-04-06T00:20:23;27.15;;;12.35;;
68214;SDS011;55036;52.138;5.236;2023-04-06T00:22:50;22.17;;;10.98;;
68214;SDS011;55036;52.138;5.236;2023-04-06T00:25:17;24.67;;;11.93;;
68214;SDS011;55036;52.138;5.236;2023-04-06T00:27:44;27.75;;;12.38;;
68214;SDS011;55036;52.138;5.236;2023-04-06T00:30:11;22.17;;;10.90;;
68214;SDS011;55036;52.138;5.236;2023-04-06T00:32:37;21.58;;;9.55;;
68214;SDS011;55036;52.138;5.236;2023-04-06T00:35:04;20.05;;;9.85;;
68214;SDS011;55036;52.138;5.236;2023-04-06T00:37:32;20.98;;;10.88;;
68214;SDS011;55036;52.138;5.236;2023-04-06T00:39:58;17.05;;;9.95;;
68214;SDS011;55036;52.138;5.236;2023-04-06T00:42:25;22.05;;;10.70;;
68214;SDS011;55036;52.138;5.236;2023-04-06T00:44:56;20.25;;;10.00;;
68214;SDS011;55036;52.138;5.236;2023-04-06T00:47:23;18.48;;;10.88;;
68214;SDS011;55036;52.138;5.236;2023-04-06T00:49:52;25.95;;;11.82;;
68214;SDS011;55036;52.138;5.236;2023-04-06T00:52:19;23.52;;;11.30;;
68214;SDS011;55036;52.138;5.236;2023-04-06T00:54:46;20.70;;;10.25;;
68214;SDS011;55036;52.138;5.236;2023-04-06T00:57:13;16.08;;;9.68;;
68214;SDS011;55036;52.138;5.236;2023-04-06T00:59:40;16.10;;;9.70;;
68214;SDS011;55036;52.138;5.236;2023-04-06T01:02:07;15.77;;;8.82;;
68214;SDS011;55036;52.138;5.236;2023-04-06T01:04:34;13.98;;;8.30;;
68214;SDS011;55036;52.138;5.236;2023-04-06T01:07:01;15.77;;;8.82;;
68214;SDS011;55036;52.138;5.236;2023-04-06T01:09:28;14.90;;;8.85;;
68214;SDS011;55036;52.138;5.236;2023-04-06T01:11:56;11.90;;;8.48;;
68214;SDS011;55036;52.138;5.236;2023-04-06T01:14:24;14.63;;;8.10;;
68214;SDS011;55036;52.138;5.236;2023-04-06T01:16:51;13.07;;;7.93;;
68214;SDS011;55036;52.138;5.236;2023-04-06T01:19:18;16.52;;;8.50;;
68214;SDS011;55036;52.138;5.236;2023-04-06T01:21:47;13.32;;;8.80;;
68214;SDS011;55036;52.138;5.236;2023-04-06T01:24:15;12.90;;;7.75;;
68214;SDS011;55036;52.138;5.236;2023-04-06T01:26:42;13.25;;;8.43;;
68214;SDS011;55036;52.138;5.236;2023-04-06T01:29:09;15.52;;;7.95;;
68214;SDS011;55036;52.138;5.236;2023-04-06T01:31:36;14.57;;;8.43;;
68214;SDS011;55036;52.138;5.236;2023-04-06T01:34:03;14.32;;;7.82;;
68214;SDS011;55036;52.138;5.236;2023-04-06T01:36:30;12.82;;;7.97;;
68214;SDS011;55036;52.138;5.236;2023-04-06T01:38:57;12.95;;;7.72;;
68214;SDS011;55036;52.138;5.236;2023-04-06T01:41:23;13.65;;;7.88;;
68214;SDS011;55036;52.138;5.236;2023-04-06T01:43:50;10.70;;;7.13;;
68214;SDS011;55036;52.138;5.236;2023-04-06T01:46:20;12.18;;;7.50;;
68214;SDS011;55036;52.138;5.236;2023-04-06T01:48:47;14.32;;;7.53;;
68214;SDS011;55036;52.138;5.236;2023-04-06T01:51:13;11.70;;;7.57;;
68214;SDS011;55036;52.138;5.236;2023-04-06T01:53:40;11.25;;;6.53;;
68214;SDS011;55036;52.138;5.236;2023-04-06T01:56:07;11.43;;;6.60;;
68214;SDS011;55036;52.138;5.236;2023-04-06T01:58:34;14.05;;;7.95;;
68214;SDS011;55036;52.138;5.236;2023-04-06T02:01:00;13.00;;;7.60;;
68214;SDS011;55036;52.138;5.236;2023-04-06T02:03:27;10.77;;;7.07;;
68214;SDS011;55036;52.138;5.236;2023-04-06T02:05:54;12.02;;;7.50;;
68214;SDS011;55036;52.138;5.236;2023-04-06T02:08:21;11.77;;;6.85;;
68214;SDS011;55036;52.138;5.236;2023-04-06T02:10:47;9.70;;;6.45;;
68214;SDS011;55036;52.138;5.236;2023-04-06T02:13:14;12.43;;;6.93;;
68214;SDS011;55036;52.138;5.236;2023-04-06T02:15:41;12.50;;;6.35;;
68214;SDS011;55036;52.138;5.236;2023-04-06T02:18:07;11.20;;;6.85;;
68214;SDS011;55036;52.138;5.236;2023-04-06T02:20:35;8.70;;;6.20;;
68214;SDS011;55036;52.138;5.236;2023-04-06T02:23:02;10.32;;;6.45;;
68214;SDS011;55036;52.138;5.236;2023-04-06T02:25:28;13.05;;;6.53;;
68214;SDS011;55036;52.138;5.236;2023-04-06T02:27:55;10.85;;;6.43;;
68214;SDS011;55036;52.138;5.236;2023-04-06T02:30:22;9.85;;;6.40;;
68214;SDS011;55036;52.138;5.236;2023-04-06T02:32:48;10.85;;;6.60;;
68214;SDS011;55036;52.138;5.236;2023-04-06T02:35:15;11.02;;;6.97;;
68214;SDS011;55036;52.138;5.236;2023-04-06T02:37:42;14.50;;;7.43;;
68214;SDS011;55036;52.138;5.236;2023-04-06T02:40:09;9.63;;;6.18;;
68214;SDS011;55036;52.138;5.236;2023-04-06T02:42:36;9.50;;;6.30;;
68214;SDS011;55036;52.138;5.236;2023-04-06T02:45:03;12.27;;;6.93;;
68214;SDS011;55036;52.138;5.236;2023-04-06T02:47:30;10.70;;;6.75;;
68214;SDS011;55036;52.138;5.236;2023-04-06T02:49:56;12.13;;;8.00;;
68214;SDS011;55036;52.138;5.236;2023-04-06T02:52:23;12.10;;;7.20;;
68214;SDS011;55036;52.138;5.236;2023-04-06T02:54:49;13.60;;;7.20;;
68214;SDS011;55036;52.138;5.236;2023-04-06T02:57:17;11.63;;;6.80;;
68214;SDS011;55036;52.138;5.236;2023-04-06T02:59:44;16.05;;;7.93;;
68214;SDS011;55036;52.138;5.236;2023-04-06T03:02:10;12.57;;;6.90;;
68214;SDS011;55036;52.138;5.236;2023-04-06T03:04:37;12.68;;;6.95;;
68214;SDS011;55036;52.138;5.236;2023-04-06T03:07:04;11.77;;;7.55;;
68214;SDS011;55036;52.138;5.236;2023-04-06T03:09:31;12.45;;;7.32;;
68214;SDS011;55036;52.138;5.236;2023-04-06T03:11:58;15.68;;;7.57;;
68214;SDS011;55036;52.138;5.236;2023-04-06T03:14:24;12.15;;;7.40;;
68214;SDS011;55036;52.138;5.236;2023-04-06T03:16:51;11.93;;;7.55;;
68214;SDS011;55036;52.138;5.236;2023-04-06T03:19:18;12.82;;;8.32;;
68214;SDS011;55036;52.138;5.236;2023-04-06T03:21:44;12.82;;;8.18;;
68214;SDS011;55036;52.138;5.236;2023-04-06T03:24:11;12.85;;;8.07;;
68214;SDS011;55036;52.138;5.236;2023-04-06T03:26:39;13.35;;;7.38;;
68214;SDS011;55036;52.138;5.236;2023-04-06T03:29:06;11.85;;;7.82;;
68214;SDS011;55036;52.138;5.236;2023-04-06T03:31:33;14.80;;;8.57;;
68214;SDS011;55036;52.138;5.236;2023-04-06T03:34:00;14.75;;;8.10;;
68214;SDS011;55036;52.138;5.236;2023-04-06T03:36:27;15.70;;;8.88;;
68214;SDS011;55036;52.138;5.236;2023-04-06T03:38:53;14.75;;;8.32;;
68214;SDS011;55036;52.138;5.236;2023-04-06T03:41:20;15.73;;;8.48;;
68214;SDS011;55036;52.138;5.236;2023-04-06T03:43:47;21.63;;;9.18;;
68214;SDS011;55036;52.138;5.236;2023-04-06T03:46:14;15.98;;;8.15;;
68214;SDS011;55036;52.138;5.236;2023-04-06T03:48:41;17.73;;;8.85;;
68214;SDS011;55036;52.138;5.236;2023-04-06T03:51:07;15.90;;;8.82;;
68214;SDS011;55036;52.138;5.236;2023-04-06T03:53:34;15.45;;;8.63;;
68214;SDS011;55036;52.138;5.236;2023-04-06T03:56:03;16.95;;;9.50;;
68214;SDS011;55036;52.138;5.236;2023-04-06T03:58:30;15.65;;;9.70;;
68214;SDS011;55036;52.138;5.236;2023-04-06T04:00:57;14.75;;;8.57;;
68214;SDS011;55036;52.138;5.236;2023-04-06T04:03:24;14.98;;;8.45;;
68214;SDS011;55036;52.138;5.236;2023-04-06T04:05:53;16.70;;;9.02;;
68214;SDS011;55036;52.138;5.236;2023-04-06T04:08:24;16.77;;;8.90;;
68214;SDS011;55036;52.138;5.236;2023-04-06T04:10:51;16.05;;;9.20;;
68214;SDS011;55036;52.138;5.236;2023-04-06T04:13:17;17.17;;;8.52;;
68214;SDS011;55036;52.138;5.236;2023-04-06T04:15:45;14.70;;;9.80;;
68214;SDS011;55036;52.138;5.236;2023-04-06T04:18:13;16.80;;;9.18;;
68214;SDS011;55036;52.138;5.236;2023-04-06T04:20:40;18.02;;;9.10;;
68214;SDS011;55036;52.138;5.236;2023-04-06T04:23:07;15.38;;;9.43;;
68214;SDS011;55036;52.138;5.236;2023-04-06T04:25:33;13.30;;;9.27;;
68214;SDS011;55036;52.138;5.236;2023-04-06T04:28:00;17.08;;;9.45;;
68214;SDS011;55036;52.138;5.236;2023-04-06T04:30:27;14.80;;;9.35;;
68214;SDS011;55036;52.138;5.236;2023-04-06T04:32:53;18.17;;;9.63;;
68214;SDS011;55036;52.138;5.236;2023-04-06T04:35:20;17.55;;;10.38;;
68214;SDS011;55036;52.138;5.236;2023-04-06T04:37:47;15.55;;;9.35;;
68214;SDS011;55036;52.138;5.236;2023-04-06T04:40:13;15.20;;;9.07;;
68214;SDS011;55036;52.138;5.236;2023-04-06T04:42:40;14.38;;;9.57;;
68214;SDS011;55036;52.138;5.236;2023-04-06T04:45:07;18.58;;;9.63;;
68214;SDS011;55036;52.138;5.236;2023-04-06T04:47:34;15.80;;;9.65;;
68214;SDS011;55036;52.138;5.236;2023-04-06T04:50:00;18.25;;;9.73;;
68214;SDS011;55036;52.138;5.236;2023-04-06T04:52:27;15.85;;;10.20;;
68214;SDS011;55036;52.138;5.236;2023-04-06T04:54:54;14.75;;;8.85;;
68214;SDS011;55036;52.138;5.236;2023-04-06T04:57:20;18.05;;;10.93;;
68214;SDS011;55036;52.138;5.236;2023-04-06T04:59:47;16.50;;;9.80;;
68214;SDS011;55036;52.138;5.236;2023-04-06T05:02:15;17.00;;;9.93;;
68214;SDS011;55036;52.138;5.236;2023-04-06T05:04:42;17.13;;;9.80;;
68214;SDS011;55036;52.138;5.236;2023-04-06T05:07:08;15.45;;;9.68;;
68214;SDS011;55036;52.138;5.236;2023-04-06T05:09:35;16.52;;;9.88;;
68214;SDS011;55036;52.138;5.236;2023-04-06T05:12:02;16.58;;;10.05;;
68214;SDS011;55036;52.138;5.236;2023-04-06T05:14:29;16.23;;;10.00;;
68214;SDS011;55036;52.138;5.236;2023-04-06T05:16:56;16.45;;;10.30;;
68214;SDS011;55036;52.138;5.236;2023-04-06T05:19:22;20.90;;;10.75;;
68214;SDS011;55036;52.138;5.236;2023-04-06T05:21:49;17.33;;;10.50;;
68214;SDS011;55036;52.138;5.236;2023-04-06T05:24:16;16.40;;;10.73;;
68214;SDS011;55036;52.138;5.236;2023-04-06T05:26:43;18.02;;;10.40;;
68214;SDS011;55036;52.138;5.236;2023-04-06T05:29:10;19.88;;;10.68;;
68214;SDS011;55036;52.138;5.236;2023-04-06T05:31:37;17.70;;;10.23;;
68214;SDS011;55036;52.138;5.236;2023-04-06T05:34:04;18.25;;;10.50;;
68214;SDS011;55036;52.138;5.236;2023-04-06T05:36:31;19.45;;;10.80;;
68214;SDS011;55036;52.138;5.236;2023-04-06T05:38:58;17.70;;;10.80;;
68214;SDS011;55036;52.138;5.236;2023-04-06T05:41:25;14.85;;;10.35;;
68214;SDS011;55036;52.138;5.236;2023-04-06T05:43:52;18.25;;;10.88;;
68214;SDS011;55036;52.138;5.236;2023-04-06T05:46:18;18.23;;;11.50;;
68214;SDS011;55036;52.138;5.236;2023-04-06T05:48:46;17.20;;;11.45;;
68214;SDS011;55036;52.138;5.236;2023-04-06T05:51:12;18.23;;;10.85;;
68214;SDS011;55036;52.138;5.236;2023-04-06T05:53:39;19.77;;;11.52;;
68214;SDS011;55036;52.138;5.236;2023-04-06T05:56:06;20.25;;;12.02;;
68214;SDS011;55036;52.138;5.236;2023-04-06T05:58:33;20.55;;;11.57;;
68214;SDS011;55036;52.138;5.236;2023-04-06T06:01:00;19.13;;;11.15;;
68214;SDS011;55036;52.138;5.236;2023-04-06T06:03:27;21.90;;;11.00;;
68214;SDS011;55036;52.138;5.236;2023-04-06T06:05:54;20.10;;;11.70;;
68214;SDS011;55036;52.138;5.236;2023-04-06T06:08:30;18.80;;;10.73;;
68214;SDS011;55036;52.138;5.236;2023-04-06T06:10:57;20.25;;;10.40;;
68214;SDS011;55036;52.138;5.236;2023-04-06T06:13:24;18.90;;;11.20;;
68214;SDS011;55036;52.138;5.236;2023-04-06T06:15:51;23.17;;;11.40;;
68214;SDS011;55036;52.138;5.236;2023-04-06T06:18:18;19.20;;;11.38;;
68214;SDS011;55036;52.138;5.236;2023-04-06T06:20:44;20.40;;;11.82;;
68214;SDS011;55036;52.138;5.236;2023-04-06T06:23:11;18.48;;;11.70;;
68214;SDS011;55036;52.138;5.236;2023-04-06T06:25:38;21.50;;;11.57;;
68214;SDS011;55036;52.138;5.236;2023-04-06T06:28:05;21.65;;;11.63;;
68214;SDS011;55036;52.138;5.236;2023-04-06T06:30:32;20.90;;;11.63;;
68214;SDS011;55036;52.138;5.236;2023-04-06T06:32:58;19.55;;;12.05;;
68214;SDS011;55036;52.138;5.236;2023-04-06T06:35:25;22.83;;;13.10;;
68214;SDS011;55036;52.138;5.236;2023-04-06T06:37:52;22.05;;;11.80;;
68214;SDS011;55036;52.138;5.236;2023-04-06T06:40:19;20.60;;;12.32;;
68214;SDS011;55036;52.138;5.236;2023-04-06T06:42:48;17.50;;;11.38;;
68214;SDS011;55036;52.138;5.236;2023-04-06T06:45:14;24.88;;;13.55;;
68214;SDS011;55036;52.138;5.236;2023-04-06T06:47:41;20.88;;;11.85;;
68214;SDS011;55036;52.138;5.236;2023-04-06T06:50:08;17.88;;;12.35;;
68214;SDS011;55036;52.138;5.236;2023-04-06T06:52:35;21.90;;;13.23;;
68214;SDS011;55036;52.138;5.236;2023-04-06T06:55:02;22.17;;;12.20;;
68214;SDS011;55036;52.138;5.236;2023-04-06T06:57:29;25.85;;;13.20;;
68214;SDS011;55036;52.138;5.236;2023-04-06T06:59:55;22.13;;;12.90;;
68214;SDS011;55036;52.138;5.236;2023-04-06T07:02:22;20.83;;;13.93;;
68214;SDS011;55036;52.138;5.236;2023-04-06T07:04:49;20.70;;;12.98;;
68214;SDS011;55036;52.138;5.236;2023-04-06T07:07:16;27.55;;;13.90;;
68214;SDS011;55036;52.138;5.236;2023-04-06T07:09:42;27.25;;;14.27;;
68214;SDS011;55036;52.138;5.236;2023-04-06T07:12:09;21.50;;;12.02;;
68214;SDS011;55036;52.138;5.236;2023-04-06T07:14:36;24.02;;;13.23;;
68214;SDS011;55036;52.138;5.236;2023-04-06T07:17:03;22.13;;;13.45;;
68214;SDS011;55036;52.138;5.236;2023-04-06T07:19:29;25.67;;;13.07;;
68214;SDS011;55036;52.138;5.236;2023-04-06T07:21:56;20.38;;;14.25;;
68214;SDS011;55036;52.138;5.236;2023-04-06T07:24:23;22.02;;;13.73;;
68214;SDS011;55036;52.138;5.236;2023-04-06T07:26:50;20.30;;;12.55;;
68214;SDS011;55036;52.138;5.236;2023-04-06T07:29:17;21.48;;;12.50;;
68214;SDS011;55036;52.138;5.236;2023-04-06T07:31:44;23.70;;;13.93;;
68214;SDS011;55036;52.138;5.236;2023-04-06T07:34:11;21.00;;;13.52;;
68214;SDS011;55036;52.138;5.236;2023-04-06T07:36:38;23.85;;;12.75;;
68214;SDS011;55036;52.138;5.236;2023-04-06T07:39:04;23.98;;;14.38;;
68214;SDS011;55036;52.138;5.236;2023-04-06T07:41:31;25.08;;;12.98;;
68214;SDS011;55036;52.138;5.236;2023-04-06T07:43:58;24.33;;;13.73;;
68214;SDS011;55036;52.138;5.236;2023-04-06T07:46:24;23.30;;;13.82;;
68214;SDS011;55036;52.138;5.236;2023-04-06T07:48:51;24.13;;;14.20;;
68214;SDS011;55036;52.138;5.236;2023-04-06T07:51:18;27.13;;;13.50;;
68214;SDS011;55036;52.138;5.236;2023-04-06T07:53:45;23.05;;;14.57;;
68214;SDS011;55036;52.138;5.236;2023-04-06T07:56:11;23.45;;;13.80;;
68214;SDS011;55036;52.138;5.236;2023-04-06T07:58:38;22.90;;;13.25;;
68214;SDS011;55036;52.138;5.236;2023-04-06T08:01:05;24.67;;;14.10;;
68214;SDS011;55036;52.138;5.236;2023-04-06T08:03:33;25.17;;;15.07;;
68214;SDS011;55036;52.138;5.236;2023-04-06T08:09:47;21.45;;;13.43;;
68214;SDS011;55036;52.138;5.236;2023-04-06T08:12:14;24.67;;;13.45;;
68214;SDS011;55036;52.138;5.236;2023-04-06T08:14:40;24.70;;;14.73;;
68214;SDS011;55036;52.138;5.236;2023-04-06T08:17:07;27.13;;;13.75;;
68214;SDS011;55036;52.138;5.236;2023-04-06T08:19:34;20.30;;;13.95;;
68214;SDS011;55036;52.138;5.236;2023-04-06T08:22:00;27.50;;;14.65;;
68214;SDS011;55036;52.138;5.236;2023-04-06T08:24:28;24.38;;;15.35;;
68214;SDS011;55036;52.138;5.236;2023-04-06T08:26:55;26.55;;;14.70;;
68214;SDS011;55036;52.138;5.236;2023-04-06T08:29:22;24.33;;;15.18;;
68214;SDS011;55036;52.138;5.236;2023-04-06T08:31:48;26.67;;;15.30;;
68214;SDS011;55036;52.138;5.236;2023-04-06T08:34:15;26.77;;;16.20;;
68214;SDS011;55036;52.138;5.236;2023-04-06T08:36:42;23.20;;;15.43;;
68214;SDS011;55036;52.138;5.236;2023-04-06T08:39:08;29.27;;;15.88;;
68214;SDS011;55036;52.138;5.236;2023-04-06T08:41:35;25.48;;;15.25;;
68214;SDS011;55036;52.138;5.236;2023-04-06T08:44:02;27.55;;;16.65;;
68214;SDS011;55036;52.138;5.236;2023-04-06T08:46:29;23.70;;;14.93;;
68214;SDS011;55036;52.138;5.236;2023-04-06T08:48:57;24.33;;;14.70;;
68214;SDS011;55036;52.138;5.236;2023-04-06T08:51:26;23.45;;;14.82;;
68214;SDS011;55036;52.138;5.236;2023-04-06T08:53:55;28.92;;;16.15;;
68214;SDS011;55036;52.138;5.236;2023-04-06T08:56:23;24.85;;;15.93;;
68214;SDS011;55036;52.138;5.236;2023-04-06T08:58:51;27.30;;;15.73;;
68214;SDS011;55036;52.138;5.236;2023-04-06T09:01:21;27.77;;;15.77;;
68214;SDS011;55036;52.138;5.236;2023-04-06T09:03:56;26.05;;;15.60;;
68214;SDS011;55036;52.138;5.236;2023-04-06T09:06:25;22.75;;;15.73;;
68214;SDS011;55036;52.138;5.236;2023-04-06T09:08:57;27.23;;;15.75;;
68214;SDS011;55036;52.138;5.236;2023-04-06T09:11:24;28.92;;;15.13;;
68214;SDS011;55036;52.138;5.236;2023-04-06T09:13:52;23.83;;;15.90;;
68214;SDS011;55036;52.138;5.236;2023-04-06T09:16:23;24.58;;;15.45;;
68214;SDS011;55036;52.138;5.236;2023-04-06T09:18:51;26.60;;;16.17;;
68214;SDS011;55036;52.138;5.236;2023-04-06T09:21:18;29.52;;;15.45;;
68214;SDS011;55036;52.138;5.236;2023-04-06T09:26:27;28.17;;;16.30;;
68214;SDS011;55036;52.138;5.236;2023-04-06T09:28:54;24.65;;;15.75;;
68214;SDS011;55036;52.138;5.236;2023-04-06T09:31:28;23.27;;;15.35;;
68214;SDS011;55036;52.138;5.236;2023-04-06T09:33:56;29.70;;;17.08;;
68214;SDS011;55036;52.138;5.236;2023-04-06T09:36:33;24.58;;;15.65;;
68214;SDS011;55036;52.138;5.236;2023-04-06T09:39:04;29.33;;;17.33;;
68214;SDS011;55036;52.138;5.236;2023-04-06T09:41:31;29.98;;;18.55;;
68214;SDS011;55036;52.138;5.236;2023-04-06T09:44:09;31.27;;;17.92;;
68214;SDS011;55036;52.138;5.236;2023-04-06T09:46:38;31.10;;;18.27;;
68214;SDS011;55036;52.138;5.236;2023-04-06T09:49:25;28.90;;;17.52;;
68214;SDS011;55036;52.138;5.236;2023-04-06T09:51:57;37.88;;;19.45;;
68214;SDS011;55036;52.138;5.236;2023-04-06T09:54:27;31.30;;;19.13;;
68214;SDS011;55036;52.138;5.236;2023-04-06T09:59:50;30.80;;;17.02;;
68214;SDS011;55036;52.138;5.236;2023-04-06T10:02:27;32.30;;;18.38;;
68214;SDS011;55036;52.138;5.236;2023-04-06T10:08:05;27.15;;;16.25;;
68214;SDS011;55036;52.138;5.236;2023-04-06T10:10:34;28.10;;;15.23;;
68214;SDS011;55036;52.138;5.236;2023-04-06T10:13:02;27.73;;;14.52;;
68214;SDS011;55036;52.138;5.236;2023-04-06T10:15:30;23.50;;;14.75;;
68214;SDS011;55036;52.138;5.236;2023-04-06T10:17:57;25.27;;;15.02;;
68214;SDS011;55036;52.138;5.236;2023-04-06T10:20:27;23.52;;;14.38;;
68214;SDS011;55036;52.138;5.236;2023-04-06T10:25:52;19.15;;;10.07;;
68214;SDS011;55036;52.138;5.236;2023-04-06T10:28:21;20.80;;;12.00;;
68214;SDS011;55036;52.138;5.236;2023-04-06T10:30:48;20.63;;;11.88;;
68214;SDS011;55036;52.138;5.236;2023-04-06T10:33:16;18.77;;;10.98;;
68214;SDS011;55036;52.138;5.236;2023-04-06T10:35:44;17.75;;;10.35;;
68214;SDS011;55036;52.138;5.236;2023-04-06T10:38:11;14.77;;;8.88;;
68214;SDS011;55036;52.138;5.236;2023-04-06T10:40:41;12.85;;;8.05;;
68214;SDS011;55036;52.138;5.236;2023-04-06T10:43:13;16.88;;;8.82;;
68214;SDS011;55036;52.138;5.236;2023-04-06T10:45:57;12.68;;;7.50;;
68214;SDS011;55036;52.138;5.236;2023-04-06T10:48:36;10.75;;;6.85;;
68214;SDS011;55036;52.138;5.236;2023-04-06T10:51:11;15.90;;;8.15;;
68214;SDS011;55036;52.138;5.236;2023-04-06T10:53:41;9.75;;;5.35;;
68214;SDS011;55036;52.138;5.236;2023-04-06T10:56:10;8.23;;;4.28;;
68214;SDS011;55036;52.138;5.236;2023-04-06T10:58:38;8.23;;;5.00;;
68214;SDS011;55036;52.138;5.236;2023-04-06T11:01:12;8.48;;;4.45;;
68214;SDS011;55036;52.138;5.236;2023-04-06T11:06:21;6.10;;;3.72;;
68214;SDS011;55036;52.138;5.236;2023-04-06T11:08:49;6.97;;;4.28;;
68214;SDS011;55036;52.138;5.236;2023-04-06T11:11:18;6.13;;;3.95;;
68214;SDS011;55036;52.138;5.236;2023-04-06T11:13:50;7.05;;;4.28;;
68214;SDS011;55036;52.138;5.236;2023-04-06T11:16:19;7.43;;;4.20;;
68214;SDS011;55036;52.138;5.236;2023-04-06T11:18:51;7.80;;;4.75;;
68214;SDS011;55036;52.138;5.236;2023-04-06T11:27:00;6.72;;;4.82;;
68214;SDS011;55036;52.138;5.236;2023-04-06T11:29:28;10.05;;;5.13;;
68214;SDS011;55036;52.138;5.236;2023-04-06T11:32:03;7.80;;;5.22;;
68214;SDS011;55036;52.138;5.236;2023-04-06T11:34:35;9.30;;;5.53;;
68214;SDS011;55036;52.138;5.236;2023-04-06T11:39:37;9.48;;;5.75;;
68214;SDS011;55036;52.138;5.236;2023-04-06T11:42:24;7.10;;;5.20;;
68214;SDS011;55036;52.138;5.236;2023-04-06T11:44:58;7.47;;;5.10;;
68214;SDS011;55036;52.138;5.236;2023-04-06T11:47:30;10.63;;;5.53;;
68214;SDS011;55036;52.138;5.236;2023-04-06T11:50:08;7.70;;;5.05;;
68214;SDS011;55036;52.138;5.236;2023-04-06T11:52:38;7.88;;;4.93;;
68214;SDS011;55036;52.138;5.236;2023-04-06T11:55:11;7.75;;;5.35;;
68214;SDS011;55036;52.138;5.236;2023-04-06T11:57:40;8.35;;;5.68;;
68214;SDS011;55036;52.138;5.236;2023-04-06T12:00:08;7.82;;;5.55;;
68214;SDS011;55036;52.138;5.236;2023-04-06T12:02:38;9.68;;;6.35;;
68214;SDS011;55036;52.138;5.236;2023-04-06T12:05:05;10.00;;;6.10;;
68214;SDS011;55036;52.138;5.236;2023-04-06T12:07:34;9.27;;;6.43;;
68214;SDS011;55036;52.138;5.236;2023-04-06T12:10:01;10.73;;;7.35;;
68214;SDS011;55036;52.138;5.236;2023-04-06T12:12:28;10.55;;;6.88;;
68214;SDS011;55036;52.138;5.236;2023-04-06T12:14:55;10.13;;;7.03;;
68214;SDS011;55036;52.138;5.236;2023-04-06T12:17:22;12.07;;;6.80;;
68214;SDS011;55036;52.138;5.236;2023-04-06T12:19:49;10.27;;;7.28;;
68214;SDS011;55036;52.138;5.236;2023-04-06T12:22:17;12.00;;;7.82;;
68214;SDS011;55036;52.138;5.236;2023-04-06T12:24:44;13.18;;;7.60;;
68214;SDS011;55036;52.138;5.236;2023-04-06T12:27:10;11.95;;;8.77;;
68214;SDS011;55036;52.138;5.236;2023-04-06T12:29:38;16.52;;;9.43;;
68214;SDS011;55036;52.138;5.236;2023-04-06T12:32:05;11.38;;;7.88;;
68214;SDS011;55036;52.138;5.236;2023-04-06T12:34:32;12.48;;;8.13;;
68214;SDS011;55036;52.138;5.236;2023-04-06T12:36:59;14.63;;;8.52;;
68214;SDS011;55036;52.138;5.236;2023-04-06T12:39:27;13.00;;;8.55;;
68214;SDS011;55036;52.138;5.236;2023-04-06T12:41:53;12.88;;;8.45;;
68214;SDS011;55036;52.138;5.236;2023-04-06T12:44:22;12.65;;;8.18;;
68214;SDS011;55036;52.138;5.236;2023-04-06T12:46:52;11.70;;;8.55;;
68214;SDS011;55036;52.138;5.236;2023-04-06T12:49:18;13.25;;;9.15;;
68214;SDS011;55036;52.138;5.236;2023-04-06T12:51:45;14.80;;;9.07;;
68214;SDS011;55036;52.138;5.236;2023-04-06T12:54:12;14.07;;;8.80;;
68214;SDS011;55036;52.138;5.236;2023-04-06T12:56:39;13.93;;;9.88;;
68214;SDS011;55036;52.138;5.236;2023-04-06T12:59:05;13.75;;;9.25;;
68214;SDS011;55036;52.138;5.236;2023-04-06T13:01:32;15.50;;;9.88;;
68214;SDS011;55036;52.138;5.236;2023-04-06T13:03:59;15.43;;;9.25;;
68214;SDS011;55036;52.138;5.236;2023-04-06T13:06:26;14.32;;;10.00;;
68214;SDS011;55036;52.138;5.236;2023-04-06T13:08:54;14.75;;;10.32;;
68214;SDS011;55036;52.138;5.236;2023-04-06T13:11:21;16.98;;;11.05;;
68214;SDS011;55036;52.138;5.236;2023-04-06T13:13:52;13.88;;;8.25;;
68214;SDS011;55036;52.138;5.236;2023-04-06T13:16:18;15.82;;;10.20;;
68214;SDS011;55036;52.138;5.236;2023-04-06T13:18:45;13.20;;;9.77;;
68214;SDS011;55036;52.138;5.236;2023-04-06T13:21:15;15.32;;;10.93;;
68214;SDS011;55036;52.138;5.236;2023-04-06T13:23:42;17.83;;;10.23;;
68214;SDS011;55036;52.138;5.236;2023-04-06T13:26:10;14.77;;;9.13;;
68214;SDS011;55036;52.138;5.236;2023-04-06T13:28:37;16.33;;;10.70;;
68214;SDS011;55036;52.138;5.236;2023-04-06T13:31:05;16.83;;;10.60;;
68214;SDS011;55036;52.138;5.236;2023-04-06T13:33:32;14.40;;;10.40;;
68214;SDS011;55036;52.138;5.236;2023-04-06T13:36:00;14.15;;;9.88;;
68214;SDS011;55036;52.138;5.236;2023-04-06T13:38:27;17.27;;;10.23;;
68214;SDS011;55036;52.138;5.236;2023-04-06T13:40:54;16.48;;;9.93;;
68214;SDS011;55036;52.138;5.236;2023-04-06T13:43:21;15.18;;;10.43;;
68214;SDS011;55036;52.138;5.236;2023-04-06T13:45:51;16.33;;;10.05;;
68214;SDS011;55036;52.138;5.236;2023-04-06T13:48:22;15.25;;;10.90;;
68214;SDS011;55036;52.138;5.236;2023-04-06T13:50:49;21.55;;;11.80;;
68214;SDS011;55036;52.138;5.236;2023-04-06T13:53:16;15.10;;;10.77;;
68214;SDS011;55036;52.138;5.236;2023-04-06T13:55:42;18.42;;;11.05;;
68214;SDS011;55036;52.138;5.236;2023-04-06T13:58:10;17.27;;;11.55;;
68214;SDS011;55036;52.138;5.236;2023-04-06T14:00:36;16.02;;;10.13;;
68214;SDS011;55036;52.138;5.236;2023-04-06T14:03:05;16.60;;;10.88;;
68214;SDS011;55036;52.138;5.236;2023-04-06T14:05:32;17.63;;;11.02;;
68214;SDS011;55036;52.138;5.236;2023-04-06T14:07:59;15.13;;;8.82;;
68214;SDS011;55036;52.138;5.236;2023-04-06T14:10:26;13.10;;;8.07;;
68214;SDS011;55036;52.138;5.236;2023-04-06T14:12:54;18.85;;;11.57;;
68214;SDS011;55036;52.138;5.236;2023-04-06T14:15:21;17.02;;;11.07;;
68214;SDS011;55036;52.138;5.236;2023-04-06T14:17:48;15.02;;;10.18;;
68214;SDS011;55036;52.138;5.236;2023-04-06T14:20:15;15.85;;;10.25;;
68214;SDS011;55036;52.138;5.236;2023-04-06T14:22:42;15.27;;;9.45;;
68214;SDS011;55036;52.138;5.236;2023-04-06T14:25:09;15.15;;;10.40;;
68214;SDS011;55036;52.138;5.236;2023-04-06T14:27:39;15.05;;;9.80;;
68214;SDS011;55036;52.138;5.236;2023-04-06T14:30:06;14.77;;;9.85;;
68214;SDS011;55036;52.138;5.236;2023-04-06T14:32:34;16.25;;;10.30;;
68214;SDS011;55036;52.138;5.236;2023-04-06T14:35:03;13.38;;;10.20;;
68214;SDS011;55036;52.138;5.236;2023-04-06T14:37:32;14.10;;;9.93;;
68214;SDS011;55036;52.138;5.236;2023-04-06T14:39:59;17.13;;;11.55;;
68214;SDS011;55036;52.138;5.236;2023-04-06T14:42:26;15.45;;;10.48;;
68214;SDS011;55036;52.138;5.236;2023-04-06T14:44:52;16.20;;;10.07;;
68214;SDS011;55036;52.138;5.236;2023-04-06T14:47:19;15.63;;;9.77;;
68214;SDS011;55036;52.138;5.236;2023-04-06T14:49:49;15.32;;;10.10;;
68214;SDS011;55036;52.138;5.236;2023-04-06T14:52:17;15.00;;;9.88;;
68214;SDS011;55036;52.138;5.236;2023-04-06T14:54:44;15.23;;;9.60;;
68214;SDS011;55036;52.138;5.236;2023-04-06T14:57:11;15.23;;;10.32;;